Latest Weather Observations for Montague Island

IDN60801

Issued at 10:02 pm EDT Saturday 28 March 2015 (issued every 30 minutes, with the page automatically refreshed every 10 minutes)

About weather observations | Map of weather stations | Latest weather observations for NSW | Other Formats
Station Details ID: 069017 Name: MONTAGUE ISLAND LIGHTHOUSE Lat: -36.25 Lon: 150.23 Height: 52.0 m
Data from the previous 72 hours. | See also: Recent months at Montague Island
Date/Time
EDT
Temp
°C
App
Temp
°C
Dew
Point
Rel
Hum
%
Delta-T
°C
Wind Press
QNH
hPa
Press
MSL
hPa
Rain
since 9 am
mm
Dir
 
Spd
km/h
Gust
km/h
Spd
kts
Gust
kts
28/10:00pm 18.9 17.9 12.4 66 3.6 E 9 13 5 7 1023.3 1023.2 0.0
28/09:30pm 18.9 16.8 12.4 66 3.6 ESE 15 19 8 10 1023.2 1023.1 0.0
28/09:00pm 18.9 16.7 12.2 65 3.7 ESE 15 19 8 10 1023.1 1022.9 0.0
28/08:30pm 18.9 17.7 11.7 63 4.0 ESE 9 19 5 10 1023.0 1022.8 0.0
28/08:00pm 18.9 17.4 11.9 64 3.9 ESE 11 15 6 8 1022.8 1022.6 0.0
28/07:30pm 18.7 16.5 12.2 66 3.6 ESE 15 20 8 11 1022.3 1022.1 0.0
28/07:00pm 18.8 17.1 12.3 66 3.6 ESE 13 19 7 10 1022.3 1022.1 0.0
28/06:30pm 18.9 16.8 12.4 66 3.6 ESE 15 22 8 12 1022.0 1021.8 0.0
28/06:00pm 18.8 16.7 11.1 61 4.2 E 13 17 7 9 1021.9 1021.7 0.0
28/05:30pm 19.1 17.6 11.9 63 4.0 ESE 11 17 6 9 1021.7 1021.5 0.0
28/05:00pm 19.2 17.1 11.0 59 4.5 ESE 13 20 7 11 1021.7 1021.5 0.0
28/04:30pm 19.3 16.9 10.0 55 5.0 ESE 13 19 7 10 1021.6 1021.4 0.0
28/04:00pm 19.6 17.4 10.9 57 4.7 ESE 13 20 7 11 1021.6 1021.4 0.0
28/03:30pm 19.4 16.4 9.3 52 5.3 E 15 20 8 11 1021.7 1021.5 0.0
28/03:00pm 19.8 16.9 9.7 52 5.4 E 15 19 8 10 1022.0 1021.8 0.0
28/02:30pm 19.6 16.9 8.9 50 5.6 ESE 13 19 7 10 1022.1 1021.9 0.0
28/02:00pm 19.8 16.8 9.1 50 5.6 ESE 15 20 8 11 1022.3 1022.1 0.0
28/01:30pm 19.5 16.9 7.9 47 6.0 ESE 11 15 6 8 1022.5 1022.3 0.0
28/01:00pm 19.1 16.9 7.8 48 5.8 ESE 9 15 5 8 1023.0 1022.8 0.0
28/12:30pm 19.2 17.2 7.3 46 6.0 SE 7 13 4 7 1023.2 1023.1 0.0
28/12:00pm 19.7 17.5 7.8 46 6.1 SSE 9 17 5 9 1023.3 1023.2 0.0
28/11:30am 19.2 16.3 6.3 43 6.4 S 11 17 6 9 1023.5 1023.4 0.0
28/11:00am 19.4 16.9 6.5 43 6.4 SSW 9 17 5 9 1023.6 1023.5 0.0
28/10:30am 19.7 17.4 7.4 45 6.3 W 9 15 5 8 1023.6 1023.5 0.0
28/10:00am 19.0 16.1 6.5 44 6.2 WSW 11 17 6 9 1023.5 1023.4 0.0
28/09:30am 18.4 15.7 7.5 49 5.5 WSW 11 17 6 9 1023.4 1023.3 0.0
28/09:00am 17.7 13.7 6.6 48 5.5 WSW 17 22 9 12 1023.3 1023.2 0.0
28/08:30am 17.1 13.3 6.0 48 5.4 WSW 15 22 8 12 1022.9 1022.7 0.0
28/08:00am 16.4 13.3 7.1 54 4.6 W 13 19 7 10 1022.6 1022.4 0.0
28/07:30am 15.6 12.6 7.9 60 3.9 WSW 13 20 7 11 1022.3 1022.1 0.0
28/07:00am 15.5 11.5 6.8 56 4.3 WSW 17 20 9 11 1021.9 1021.7 0.0
28/06:30am 15.9 11.5 7.4 57 4.2 SW 20 26 11 14 1021.4 1021.2 0.0
28/06:00am 16.0 11.4 6.4 53 4.7 SW 20 24 11 13 1021.2 1021.0 0.0
28/05:30am 16.2 11.7 6.1 51 4.9 WSW 19 24 10 13 1020.8 1020.6 0.0
28/05:00am 16.4 12.2 7.3 55 4.5 WSW 19 22 10 12 1020.6 1020.4 0.0
28/04:30am 16.3 13.1 7.0 54 4.6 WSW 13 17 7 9 1020.4 1020.2 0.0
28/04:00am 16.6 12.6 6.7 52 4.9 WSW 17 20 9 11 1020.4 1020.2 0.0
28/03:30am 16.6 12.4 7.3 54 4.6 WSW 19 24 10 13 1020.3 1020.1 0.0
28/03:00am 16.7 11.9 7.4 54 4.6 WSW 22 28 12 15 1020.3 1020.1 0.0
28/02:30am 16.8 12.5 7.7 55 4.6 SW 20 26 11 14 1020.6 1020.4 0.0
28/02:00am 17.0 12.0 7.9 55 4.6 SW 24 32 13 17 1020.5 1020.3 0.0
28/01:30am 17.3 11.8 7.4 52 5.0 SW 26 32 14 17 1020.5 1020.3 0.0
28/01:00am 17.6 11.5 8.2 54 4.8 SW 30 35 16 19 1020.3 1020.1 0.0
28/12:30am 17.5 10.5 7.0 50 5.2 SW 33 43 18 23 1020.4 1020.2 0.0
28/12:00am 18.0 10.2 8.3 53 5.0 SW 39 48 21 26 1020.2 1020.0 0.0
 
Date/Time
EDT
Temp
°C
App
Temp
°C
Dew
Point
Rel
Hum
%
Delta-T
°C
Wind Press
QNH
hPa
Press
MSL
hPa
Rain
since 9 am
mm
Dir
 
Spd
km/h
Gust
km/h
Spd
kts
Gust
kts
27/11:30pm 18.4 12.0 8.4 52 5.2 SW 32 41 17 22 1020.0 1019.8 0.0
27/11:00pm 18.8 13.1 6.6 45 6.1 WSW 26 35 14 19 1019.9 1019.7 0.0
27/10:30pm 19.0 12.9 6.5 44 6.2 WSW 28 35 15 19 1019.7 1019.5 0.0
27/10:00pm 19.5 12.2 7.3 45 6.2 SW 35 44 19 24 1019.3 1019.1 0.0
27/09:30pm 19.7 12.3 6.8 43 6.5 SW 35 43 19 23 1019.0 1018.8 0.0
27/09:00pm 20.2 14.0 7.9 45 6.4 SSW 30 37 16 20 1018.6 1018.4 0.0
27/08:30pm 20.4 15.8 6.7 41 6.9 WSW 20 26 11 14 1018.2 1018.0 0.0
27/08:00pm 20.8 15.9 6.7 40 7.1 WSW 22 28 12 15 1017.5 1017.3 0.0
27/07:30pm 21.0 15.3 6.5 39 7.3 W 26 33 14 18 1017.1 1016.9 0.0
27/07:00pm 21.6 14.3 5.5 35 8.0 W 33 41 18 22 1016.6 1016.4 0.0
27/06:30pm 22.0 14.2 5.0 33 8.4 W 35 43 19 23 1016.3 1016.1 0.0
27/06:00pm 22.4 13.7 5.8 34 8.4 WSW 41 50 22 27 1015.9 1015.7 0.0
27/05:30pm 22.5 14.2 4.1 30 9.0 W 37 46 20 25 1015.4 1015.2 0.0
27/05:00pm 23.4 15.6 4.9 30 9.2 W 35 46 19 25 1015.1 1014.9 0.0
27/04:30pm 23.6 17.0 4.0 28 9.6 WSW 28 37 15 20 1015.1 1014.9 0.0
27/04:00pm 24.3 19.1 5.6 30 9.5 WSW 22 32 12 17 1015.3 1015.1 0.0
27/03:30pm 23.9 16.4 3.2 26 10.0 WSW 32 43 17 23 1015.4 1015.2 0.0
27/03:00pm 24.4 18.5 5.7 30 9.5 WSW 26 39 14 21 1015.7 1015.5 0.0
27/02:30pm 24.2 19.8 4.6 28 9.8 SW 17 32 9 17 1015.9 1015.7 0.0
27/02:00pm 23.3 19.5 5.7 32 8.9 S 15 26 8 14 1015.9 1015.7 0.0
27/01:30pm 23.0 20.5 3.5 28 9.5 SW 6 11 3 6 1016.1 1015.9 0.0
27/01:00pm 22.8 19.8 3.9 29 9.2 SSW 9 19 5 10 1016.4 1016.2 0.0
27/12:30pm 23.2 18.4 5.6 32 8.9 WNW 20 32 11 17 1016.8 1016.6 0.0
27/12:00pm 21.8 16.8 3.5 30 8.8 WNW 19 30 10 16 1017.0 1016.8 0.0
27/11:30am 21.2 16.1 3.9 32 8.3 WNW 20 28 11 15 1017.2 1017.0 0.0
27/11:00am 20.4 15.5 4.0 34 7.9 WNW 19 28 10 15 1017.6 1017.4 0.0
27/10:30am 20.0 15.1 4.9 37 7.4 WNW 20 30 11 16 1017.5 1017.3 0.0
27/10:00am 19.2 12.3 4.6 38 7.0 WNW 30 43 16 23 1017.8 1017.6 0.0
27/09:30am 18.8 13.6 5.6 42 6.5 WNW 22 32 12 17 1018.0 1017.8 0.0
27/09:00am 17.6 12.0 5.2 44 6.0 NW 24 33 13 18 1017.6 1017.4 0.0
27/08:30am 17.1 10.4 3.8 41 6.2 WNW 28 39 15 21 1017.3 1017.1 0.0
27/08:00am 16.7 10.3 3.1 40 6.2 W 26 39 14 21 1017.2 1017.0 0.0
27/07:30am 16.0 9.3 3.4 43 5.8 W 28 39 15 21 1017.1 1016.9 0.0
27/07:00am 15.4 10.1 2.9 43 5.6 W 20 28 11 15 1017.1 1016.9 0.0
27/06:30am 15.4 10.4 3.5 45 5.4 WNW 19 26 10 14 1016.9 1016.7 0.0
27/06:00am 15.5 10.8 3.0 43 5.7 NW 17 26 9 14 1016.6 1016.4 0.0
27/05:30am 16.0 9.9 2.8 41 6.0 WNW 24 33 13 18 1016.4 1016.2 0.0
27/05:00am 15.9 10.9 1.6 38 6.3 NW 17 24 9 13 1016.7 1016.5 0.0
27/04:30am 15.9 11.2 3.0 42 5.9 NW 17 24 9 13 1016.6 1016.4 0.0
27/04:00am 16.1 9.8 1.8 38 6.3 WNW 24 32 13 17 1016.8 1016.6 0.0
27/03:30am 16.2 9.6 1.9 38 6.4 WNW 26 33 14 18 1016.9 1016.7 0.0
27/03:00am 16.4 10.6 2.1 38 6.4 NW 22 32 12 17 1017.1 1016.9 0.0
27/02:30am 16.1 10.7 1.4 37 6.5 WNW 19 26 10 14 1017.5 1017.3 0.0
27/02:00am 16.3 11.6 1.2 36 6.6 WNW 15 20 8 11 1017.7 1017.5 0.0
27/01:30am 16.5 11.3 0.2 33 7.0 NW 17 24 9 13 1017.7 1017.5 0.0
27/01:00am 16.7 10.8 1.6 36 6.7 WNW 22 35 12 19 1017.8 1017.6 0.0
27/12:30am 16.9 9.2 2.1 37 6.7 WNW 32 37 17 20 1017.8 1017.6 0.0
27/12:00am 17.0 9.5 1.4 35 6.9 WNW 30 39 16 21 1018.0 1017.8 0.0
 
Date/Time
EDT
Temp
°C
App
Temp
°C
Dew
Point
Rel
Hum
%
Delta-T
°C
Wind Press
QNH
hPa
Press
MSL
hPa
Rain
since 9 am
mm
Dir
 
Spd
km/h
Gust
km/h
Spd
kts
Gust
kts
26/11:30pm 17.1 9.5 2.7 38 6.6 WNW 32 37 17 20 1018.1 1017.9 0.0
26/11:00pm 17.2 10.8 5.2 45 5.8 WNW 28 35 15 19 1018.2 1018.0 0.0
26/10:30pm 17.5 9.5 3.8 40 6.4 WNW 35 43 19 23 1018.1 1017.9 0.0
26/10:00pm 17.2 13.0 11.0 67 3.3 W 24 32 13 17 1018.4 1018.2 0.0
26/09:30pm 17.3 15.3 12.6 74 2.6 SW 15 20 8 11 1018.3 1018.1 0.0
26/09:00pm 17.6 16.0 12.9 74 2.6 SW 13 20 7 11 1018.0 1017.8 0.0
26/08:30pm 17.6 15.3 13.1 75 2.5 SSW 17 22 9 12 1017.7 1017.5 0.0
26/08:00pm 17.9 15.2 13.6 76 2.4 S 20 28 11 15 1017.0 1016.8 0.0
26/07:30pm 18.2 13.7 13.9 76 2.5 S 30 35 16 19 1016.5 1016.3 0.0
26/07:00pm 18.1 13.3 14.0 77 2.3 S 32 39 17 21 1016.0 1015.8 0.0
26/06:30pm 18.6 13.8 14.7 78 2.3 SSE 33 41 18 22 1015.4 1015.2 0.0
26/06:00pm 19.7 16.4 14.9 74 2.8 S 26 43 14 23 1015.0 1014.8 0.0
26/05:30pm 20.4 18.0 11.3 56 5.0 SSE 15 20 8 11 1014.7 1014.5 0.0
26/05:00pm 20.4 18.1 10.5 53 5.4 SE 13 17 7 9 1014.4 1014.2 0.0
26/04:30pm 20.9 17.5 10.4 51 5.7 ESE 19 22 10 12 1014.1 1013.9 0.0
26/04:00pm 21.0 17.6 9.3 47 6.2 E 17 22 9 12 1014.0 1013.8 0.0
26/03:30pm 21.1 17.5 9.7 48 6.1 E 19 24 10 13 1013.9 1013.7 0.0
26/03:00pm 21.6 17.9 8.1 42 7.1 E 17 20 9 11 1014.0 1013.8 0.0
26/02:30pm 21.5 17.6 7.3 40 7.3 E 17 20 9 11 1014.0 1013.8 0.0
26/02:00pm 21.9 19.0 6.6 37 7.8 ESE 11 17 6 9 1014.2 1014.0 0.0
26/01:30pm 21.6 18.4 6.7 38 7.6 SSE 13 17 7 9 1014.6 1014.4 0.0
26/01:00pm 22.9 19.9 5.8 33 8.6 W 11 17 6 9 1015.0 1014.8 0.0
26/12:30pm 22.2 18.0 5.6 34 8.3 WNW 17 24 9 13 1015.2 1015.0 0.0
26/12:00pm 21.6 15.4 6.3 37 7.7 WNW 28 35 15 19 1015.4 1015.2 0.0
26/11:30am 20.7 13.6 6.6 40 7.1 WNW 33 43 18 23 1015.4 1015.2 0.0
26/11:00am 19.2 11.4 6.7 44 6.3 WNW 37 48 20 26 1015.4 1015.2 0.0
26/10:50am 19.4 13.3 6.8 44 6.4 WNW 28 46 15 25 1015.4 1015.2 0.0
26/10:30am 18.8 16.1 11.6 63 4.0 NW 17 22 9 12 1015.6 1015.4 0.0
26/10:00am 18.8 15.3 10.9 60 4.3 NW 20 30 11 16 1015.6 1015.4 0.0
26/09:30am 18.4 15.6 12.6 69 3.2 NW 19 24 10 13 1015.6 1015.4 0.0
26/09:00am 17.8 15.6 13.3 75 2.5 NW 17 22 9 12 1015.4 1015.2 0.0
26/08:30am 17.4 15.2 13.3 77 2.3 NW 17 24 9 13 1015.4 1015.2 0.0
26/08:00am 17.5 16.2 14.8 84 1.6 NW 15 19 8 10 1015.3 1015.1 0.0
26/07:30am 17.7 16.0 13.6 77 2.3 NW 15 20 8 11 1015.1 1014.9 0.0
26/07:00am 17.4 15.7 13.7 79 2.1 NNW 15 20 8 11 1015.0 1014.8 0.0
26/06:30am 17.3 15.7 13.8 80 2.0 NW 15 22 8 12 1015.0 1014.8 0.0
26/06:00am 18.0 14.9 14.5 80 2.0 NNW 24 30 13 16 1014.8 1014.6 0.0
26/05:30am 18.4 14.1 14.3 77 2.4 NNW 30 37 16 20 1014.8 1014.6 0.0
26/05:00am 18.4 14.1 14.3 77 2.4 N 30 37 16 20 1014.5 1014.3 0.0
26/04:30am 18.6 14.7 14.5 77 2.4 N 28 35 15 19 1014.7 1014.5 0.0
26/04:00am 18.8 15.2 15.3 80 2.1 N 28 33 15 18 1014.8 1014.6 0.0
26/03:30am 18.7 15.3 14.8 78 2.3 N 26 33 14 18 1015.1 1014.9 0.0
26/03:00am 18.9 15.1 14.6 76 2.5 NNW 28 37 15 20 1015.5 1015.3 0.0
26/02:30am 18.9 15.9 14.8 77 2.4 N 24 30 13 16 1015.9 1015.7 0.0
26/02:00am 18.6 16.2 14.3 76 2.5 N 20 28 11 15 1016.0 1015.8 0.0
26/01:30am 18.8 15.9 13.9 73 2.8 NNW 22 30 12 16 1016.3 1016.1 0.0
26/01:00am 18.9 15.5 13.7 72 3.0 NNW 24 30 13 16 1016.4 1016.2 0.0
26/12:30am 18.9 16.4 14.2 74 2.7 NNW 20 26 11 14 1016.6 1016.4 0.0
26/12:00am 19.0 16.4 13.8 72 3.0 NNW 20 26 11 14 1016.8 1016.6 0.0
 
Date/Time
EDT
Temp
°C
App
Temp
°C
Dew
Point
Rel
Hum
%
Delta-T
°C
Wind Press
QNH
hPa
Press
MSL
hPa
Rain
since 9 am
mm
Dir
 
Spd
km/h
Gust
km/h
Spd
kts
Gust
kts
25/11:30pm 19.4 16.6 14.4 73 2.9 NNW 22 37 12 20 1017.0 1016.8 0.0
25/11:00pm 19.6 14.6 13.3 67 3.6 NNE 32 43 17 23 1017.1 1016.9 0.0
25/10:30pm 19.6 14.9 13.3 67 3.6 NNE 30 35 16 19 1017.3 1017.1 0.0

Other Formats:

Comma delimited format used in spreadsheet applications
http://www.bom.gov.au/fwo/IDN60801/IDN60801.94939.axf

JavaScript Object Notation format (JSON) in row-major order
http://www.bom.gov.au/fwo/IDN60801/IDN60801.94939.json